Time,TemperatureF,DewpointF,PressureIn,WindDirection,WindDirectionDegrees,WindSpeedMPH,WindSpeedGustMPH,Humidity,HourlyPrecipIn,Conditions,Clouds,dailyrainin,SoftwareType,DateUTC
2013-06-08 00:04:00,57.9,37.8,30.15,SSE,161,0.0,2.0,47,0.00,,,0.00,meteohub,2013-06-08 07:04:00,
2013-06-08 00:09:00,57.7,36.5,30.15,SE,135,2.0,2.0,45,0.00,,,0.00,meteohub,2013-06-08 07:09:00,
2013-06-08 00:14:00,57.6,36.3,30.15,SSE,147,1.0,3.0,45,0.00,,,0.00,meteohub,2013-06-08 07:14:00,
2013-06-08 00:19:00,57.4,36.7,30.15,SSE,155,0.0,3.0,46,0.00,,,0.00,meteohub,2013-06-08 07:19:00,
2013-06-08 00:24:00,57.0,37.0,30.15,SSE,165,1.0,3.0,47,0.00,,,0.00,meteohub,2013-06-08 07:24:00,
2013-06-08 00:29:00,56.8,37.4,30.15,SSE,155,0.0,3.0,48,0.00,,,0.00,meteohub,2013-06-08 07:29:00,
2013-06-08 00:34:00,56.5,37.0,30.15,ESE,115,1.0,2.0,48,0.00,,,0.00,meteohub,2013-06-08 07:34:00,
2013-06-08 00:39:00,56.5,37.0,30.15,ESE,114,0.0,1.0,48,0.00,,,0.00,meteohub,2013-06-08 07:39:00,
2013-06-08 00:44:00,56.1,36.7,30.15,ESE,115,0.0,1.0,48,0.00,,,0.00,meteohub,2013-06-08 07:44:00,
2013-06-08 00:49:00,55.9,36.5,30.16,ESE,114,0.0,1.0,48,0.00,,,0.00,meteohub,2013-06-08 07:49:00,
2013-06-08 00:54:00,55.8,35.8,30.16,SE,144,0.0,1.0,47,0.00,,,0.00,meteohub,2013-06-08 07:54:00,
2013-06-08 00:59:00,55.8,36.3,30.16,South,178,1.0,1.0,48,0.00,,,0.00,meteohub,2013-06-08 07:59:00,
2013-06-08 01:04:00,55.2,36.3,30.16,SSE,157,0.0,2.0,49,0.00,,,0.00,meteohub,2013-06-08 08:04:00,
2013-06-08 01:09:00,54.9,36.1,30.15,SSE,154,0.0,2.0,49,0.00,,,0.00,meteohub,2013-06-08 08:09:00,
2013-06-08 01:14:00,54.7,36.0,30.15,SSE,152,2.0,2.0,49,0.00,,,0.00,meteohub,2013-06-08 08:14:00,
2013-06-08 01:19:00,54.7,36.3,30.15,SSE,167,0.0,2.0,50,0.00,,,0.00,meteohub,2013-06-08 08:19:00,
2013-06-08 01:24:00,54.9,36.1,30.15,SW,214,0.0,2.0,49,0.00,,,0.00,meteohub,2013-06-08 08:24:00,
2013-06-08 01:29:00,54.7,35.4,30.15,SSW,199,1.0,2.0,48,0.00,,,0.00,meteohub,2013-06-08 08:29:00,
2013-06-08 01:34:00,54.7,36.0,30.15,SSE,157,1.0,2.0,49,0.00,,,0.00,meteohub,2013-06-08 08:34:00,
2013-06-08 01:40:00,54.5,36.3,30.15,SE,141,1.0,2.0,50,0.00,,,0.00,meteohub,2013-06-08 08:40:00,
2013-06-08 01:45:00,54.3,36.1,30.15,SSE,157,0.0,2.0,50,0.00,,,0.00,meteohub,2013-06-08 08:45:00,
2013-06-08 01:50:00,54.0,35.8,30.15,SE,140,0.0,2.0,50,0.00,,,0.00,meteohub,2013-06-08 08:50:00,
2013-06-08 01:55:00,53.8,35.6,30.15,SSE,165,0.0,2.0,50,0.00,,,0.00,meteohub,2013-06-08 08:55:00,
2013-06-08 02:00:00,53.4,35.2,30.15,SSE,155,0.0,1.0,50,0.00,,,0.00,meteohub,2013-06-08 09:00:00,
2013-06-08 02:05:00,53.2,34.5,30.15,SSE,153,0.0,1.0,49,0.00,,,0.00,meteohub,2013-06-08 09:05:00,
2013-06-08 02:10:00,53.2,35.1,30.15,SSE,155,0.0,1.0,50,0.00,,,0.00,meteohub,2013-06-08 09:10:00,
2013-06-08 02:15:00,52.9,34.2,30.15,SSE,158,0.0,1.0,49,0.00,,,0.00,meteohub,2013-06-08 09:15:00,
2013-06-08 02:20:00,52.7,34.2,30.15,SSW,192,0.0,2.0,49,0.00,,,0.00,meteohub,2013-06-08 09:20:00,
2013-06-08 02:25:00,52.5,34.0,30.15,SSE,149,1.0,2.0,49,0.00,,,0.00,meteohub,2013-06-08 09:25:00,
2013-06-08 02:30:00,52.3,33.8,30.16,SSW,211,0.0,2.0,49,0.00,,,0.00,meteohub,2013-06-08 09:30:00,
2013-06-08 02:35:00,52.2,33.6,30.16,SE,130,0.0,2.0,49,0.00,,,0.00,meteohub,2013-06-08 09:35:00,
2013-06-08 02:40:00,52.2,34.2,30.16,SE,132,0.0,2.0,50,0.00,,,0.00,meteohub,2013-06-08 09:40:00,
2013-06-08 02:45:00,52.2,34.5,30.16,SW,223,0.0,1.0,51,0.00,,,0.00,meteohub,2013-06-08 09:45:00,
2013-06-08 02:50:00,52.0,34.9,30.16,SE,128,0.0,2.0,52,0.00,,,0.00,meteohub,2013-06-08 09:50:00,
2013-06-08 02:55:00,52.0,34.9,30.16,SE,144,1.0,2.0,52,0.00,,,0.00,meteohub,2013-06-08 09:55:00,
2013-06-08 03:00:00,51.6,34.2,30.16,SSE,159,0.0,2.0,51,0.00,,,0.00,meteohub,2013-06-08 10:00:00,
2013-06-08 03:05:00,51.4,34.3,30.16,SSE,165,0.0,2.0,52,0.00,,,0.00,meteohub,2013-06-08 10:05:00,
2013-06-08 03:10:00,51.3,35.2,30.16,SSE,161,0.0,2.0,54,0.00,,,0.00,meteohub,2013-06-08 10:10:00,
2013-06-08 03:15:00,51.3,35.2,30.16,SSE,167,0.0,2.0,54,0.00,,,0.00,meteohub,2013-06-08 10:15:00,
2013-06-08 03:20:00,51.1,35.1,30.16,SSE,148,0.0,2.0,54,0.00,,,0.00,meteohub,2013-06-08 10:20:00,
2013-06-08 03:25:00,51.1,34.5,30.16,SSE,160,0.0,3.0,53,0.00,,,0.00,meteohub,2013-06-08 10:25:00,
2013-06-08 03:30:00,51.1,34.5,30.16,SSE,149,0.0,3.0,53,0.00,,,0.00,meteohub,2013-06-08 10:30:00,
2013-06-08 03:35:00,50.7,34.2,30.16,SSE,155,2.0,3.0,53,0.00,,,0.00,meteohub,2013-06-08 10:35:00,
2013-06-08 03:40:00,50.7,34.2,30.16,SSE,154,1.0,3.0,53,0.00,,,0.00,meteohub,2013-06-08 10:40:00,
2013-06-08 03:45:00,50.5,34.0,30.16,SSE,148,0.0,3.0,53,0.00,,,0.00,meteohub,2013-06-08 10:45:00,
2013-06-08 03:51:00,50.5,34.0,30.16,SSE,161,0.0,3.0,53,0.00,,,0.00,meteohub,2013-06-08 10:51:00,
2013-06-08 03:56:00,50.5,34.5,30.16,SSE,161,1.0,2.0,54,0.00,,,0.00,meteohub,2013-06-08 10:56:00,
2013-06-08 04:01:00,50.5,35.1,30.15,SSE,153,0.0,3.0,55,0.00,,,0.00,meteohub,2013-06-08 11:01:00,
2013-06-08 04:06:00,50.4,34.9,30.15,SSE,148,1.0,3.0,55,0.00,,,0.00,meteohub,2013-06-08 11:06:00,
2013-06-08 04:11:00,50.2,34.7,30.15,SSE,159,0.0,3.0,55,0.00,,,0.00,meteohub,2013-06-08 11:11:00,
2013-06-08 04:16:00,50.2,35.1,30.15,SSE,155,0.0,3.0,56,0.00,,,0.00,meteohub,2013-06-08 11:16:00,
2013-06-08 04:21:00,50.0,34.9,30.15,SSW,192,2.0,3.0,56,0.00,,,0.00,meteohub,2013-06-08 11:21:00,
2013-06-08 04:26:00,50.2,35.1,30.15,SSE,152,0.0,2.0,56,0.00,,,0.00,meteohub,2013-06-08 11:26:00,
2013-06-08 04:31:00,50.2,35.6,30.15,SE,144,0.0,2.0,57,0.00,,,0.00,meteohub,2013-06-08 11:31:00,
2013-06-08 04:37:00,50.2,35.6,30.15,SSE,157,0.0,3.0,57,0.00,,,0.00,meteohub,2013-06-08 11:37:00,
2013-06-08 04:42:00,50.2,35.6,30.15,SSE,165,0.0,3.0,57,0.00,,,0.00,meteohub,2013-06-08 11:42:00,
2013-06-08 04:47:00,50.2,36.0,30.15,SE,140,0.0,2.0,58,0.00,,,0.00,meteohub,2013-06-08 11:47:00,
2013-06-08 04:52:00,50.2,36.0,30.15,SE,139,0.0,2.0,58,0.00,,,0.00,meteohub,2013-06-08 11:52:00,
2013-06-08 04:57:00,50.0,36.3,30.15,SE,140,0.0,1.0,59,0.00,,,0.00,meteohub,2013-06-08 11:57:00,
2013-06-08 05:02:00,49.8,36.1,30.15,SSE,165,0.0,1.0,59,0.00,,,0.00,meteohub,2013-06-08 12:02:00,
2013-06-08 05:07:00,49.6,36.3,30.15,SSW,198,1.0,1.0,60,0.00,,,0.00,meteohub,2013-06-08 12:07:00,
2013-06-08 05:12:00,49.5,36.1,30.15,SSE,150,1.0,2.0,60,0.00,,,0.00,meteohub,2013-06-08 12:12:00,
2013-06-08 05:17:00,49.5,36.5,30.15,SSE,159,0.0,2.0,61,0.00,,,0.00,meteohub,2013-06-08 12:17:00,
2013-06-08 05:22:00,49.3,36.3,30.16,SSW,195,0.0,2.0,61,0.00,,,0.00,meteohub,2013-06-08 12:22:00,
2013-06-08 05:27:00,49.1,36.7,30.15,SSE,156,1.0,2.0,62,0.00,,,0.00,meteohub,2013-06-08 12:27:00,
2013-06-08 05:32:00,49.1,36.7,30.16,SSW,193,0.0,2.0,62,0.00,,,0.00,meteohub,2013-06-08 12:32:00,
2013-06-08 05:37:00,49.1,36.7,30.16,SSE,151,0.0,1.0,62,0.00,,,0.00,meteohub,2013-06-08 12:37:00,
2013-06-08 05:42:00,48.9,36.5,30.16,SSE,157,0.0,1.0,62,0.00,,,0.00,meteohub,2013-06-08 12:42:00,
2013-06-08 05:47:00,48.9,36.5,30.16,SE,132,0.0,2.0,62,0.00,,,0.00,meteohub,2013-06-08 12:47:00,
2013-06-08 05:52:00,48.7,36.3,30.15,SSE,161,1.0,2.0,62,0.00,,,0.00,meteohub,2013-06-08 12:52:00,
2013-06-08 05:57:00,48.7,36.7,30.16,South,174,0.0,2.0,63,0.00,,,0.00,meteohub,2013-06-08 12:57:00,
2013-06-08 06:02:00,49.5,37.0,30.15,SSE,156,0.0,2.0,62,0.00,,,0.00,meteohub,2013-06-08 13:02:00,
2013-06-08 06:08:00,51.3,37.8,30.15,SE,144,0.0,2.0,60,0.00,,,0.00,meteohub,2013-06-08 13:08:00,
2013-06-08 06:13:00,52.5,37.8,30.16,East,98,0.0,2.0,57,0.00,,,0.00,meteohub,2013-06-08 13:13:00,
2013-06-08 06:18:00,53.1,38.3,30.16,SSE,153,1.0,2.0,57,0.00,,,0.00,meteohub,2013-06-08 13:18:00,
2013-06-08 06:23:00,54.0,39.9,30.16,SE,130,0.0,2.0,59,0.00,,,0.00,meteohub,2013-06-08 13:23:00,
2013-06-08 06:28:00,54.9,39.4,30.16,SE,139,0.0,2.0,56,0.00,,,0.00,meteohub,2013-06-08 13:28:00,
2013-06-08 06:33:00,55.2,39.4,30.16,SSW,195,0.0,1.0,55,0.00,,,0.00,meteohub,2013-06-08 13:33:00,
2013-06-08 06:38:00,55.8,40.3,30.16,SSE,159,0.0,3.0,56,0.00,,,0.00,meteohub,2013-06-08 13:38:00,
2013-06-08 06:43:00,56.5,40.5,30.16,SSE,148,1.0,3.0,55,0.00,,,0.00,meteohub,2013-06-08 13:43:00,
2013-06-08 06:48:00,57.0,40.5,30.16,SSE,168,1.0,3.0,54,0.00,,,0.00,meteohub,2013-06-08 13:48:00,
2013-06-08 06:53:00,57.6,41.0,30.16,South,173,1.0,2.0,54,0.00,,,0.00,meteohub,2013-06-08 13:53:00,
2013-06-08 06:58:00,58.1,41.0,30.16,SSE,163,0.0,1.0,53,0.00,,,0.00,meteohub,2013-06-08 13:58:00,
2013-06-08 07:03:00,58.8,41.7,30.16,SSE,166,0.0,2.0,53,0.00,,,0.00,meteohub,2013-06-08 14:03:00,
2013-06-08 07:08:00,59.5,41.9,30.16,SSE,152,0.0,2.0,52,0.00,,,0.00,meteohub,2013-06-08 14:08:00,
2013-06-08 07:13:00,59.7,42.1,30.16,SE,140,0.0,1.0,52,0.00,,,0.00,meteohub,2013-06-08 14:13:00,
2013-06-08 07:18:00,59.9,42.8,30.16,SE,144,0.0,1.0,53,0.00,,,0.00,meteohub,2013-06-08 14:18:00,
2013-06-08 07:23:00,60.4,43.2,30.16,SE,144,0.0,1.0,53,0.00,,,0.00,meteohub,2013-06-08 14:23:00,
2013-06-08 07:28:00,61.2,43.3,30.16,SSE,148,0.0,1.0,52,0.00,,,0.00,meteohub,2013-06-08 14:28:00,
2013-06-08 07:33:00,62.4,44.1,30.16,SSE,148,0.0,1.0,51,0.00,,,0.00,meteohub,2013-06-08 14:33:00,
2013-06-08 07:39:00,63.3,43.9,30.16,SE,137,0.0,1.0,49,0.00,,,0.00,meteohub,2013-06-08 14:39:00,
2013-06-08 07:44:00,63.3,43.3,30.16,SE,126,0.0,0.0,48,0.00,,,0.00,meteohub,2013-06-08 14:44:00,
2013-06-08 07:49:00,63.0,46.0,30.15,NNW,342,0.0,1.0,54,0.00,,,0.00,meteohub,2013-06-08 14:49:00,
2013-06-08 07:54:00,63.3,45.9,30.15,NNW,331,1.0,2.0,53,0.00,,,0.00,meteohub,2013-06-08 14:54:00,
2013-06-08 07:59:00,63.0,46.6,30.15,NNW,337,0.0,2.0,55,0.00,,,0.00,meteohub,2013-06-08 14:59:00,
2013-06-08 08:04:00,62.8,45.3,30.15,NNW,337,0.0,2.0,53,0.00,,,0.00,meteohub,2013-06-08 15:04:00,
2013-06-08 08:09:00,62.8,47.3,30.15,NNW,337,1.0,2.0,57,0.00,,,0.00,meteohub,2013-06-08 15:09:00,
2013-06-08 08:14:00,62.4,46.6,30.15,NNW,333,2.0,2.0,56,0.00,,,0.00,meteohub,2013-06-08 15:14:00,
2013-06-08 08:19:00,62.2,48.2,30.15,NNW,331,1.0,2.0,60,0.00,,,0.00,meteohub,2013-06-08 15:19:00,
2013-06-08 08:24:00,62.4,48.4,30.15,NNW,337,2.0,2.0,60,0.00,,,0.00,meteohub,2013-06-08 15:24:00,
2013-06-08 08:29:00,62.2,49.5,30.15,NNW,337,0.0,2.0,63,0.00,,,0.00,meteohub,2013-06-08 15:29:00,
2013-06-08 08:34:00,62.4,49.6,30.15,NNW,333,0.0,2.0,63,0.00,,,0.00,meteohub,2013-06-08 15:34:00,
2013-06-08 08:39:00,62.8,50.9,30.15,NNW,333,2.0,3.0,65,0.00,,,0.00,meteohub,2013-06-08 15:39:00,
2013-06-08 08:44:00,62.6,51.1,30.14,NW,326,1.0,3.0,66,0.00,,,0.00,meteohub,2013-06-08 15:44:00,
2013-06-08 08:49:00,62.1,51.4,30.14,NW,326,1.0,3.0,68,0.00,,,0.00,meteohub,2013-06-08 15:49:00,
2013-06-08 08:54:00,62.2,51.1,30.15,NNW,330,1.0,2.0,67,0.00,,,0.00,meteohub,2013-06-08 15:54:00,
2013-06-08 09:00:00,62.4,51.3,30.15,NNW,333,2.0,2.0,67,0.00,,,0.00,meteohub,2013-06-08 16:00:00,
2013-06-08 09:05:00,62.1,51.8,30.15,NW,322,1.0,2.0,69,0.00,,,0.00,meteohub,2013-06-08 16:05:00,
2013-06-08 09:10:00,62.4,52.2,30.15,NW,326,2.0,3.0,69,0.00,,,0.00,meteohub,2013-06-08 16:10:00,
2013-06-08 09:15:00,62.8,52.0,30.15,NNW,327,2.0,3.0,68,0.00,,,0.00,meteohub,2013-06-08 16:15:00,
2013-06-08 09:20:00,62.8,52.5,30.14,NW,325,2.0,3.0,69,0.00,,,0.00,meteohub,2013-06-08 16:20:00,
2013-06-08 09:25:00,63.1,52.0,30.14,NW,323,0.0,3.0,67,0.00,,,0.00,meteohub,2013-06-08 16:25:00,
2013-06-08 09:30:00,64.6,52.5,30.14,NNW,330,0.0,3.0,65,0.00,,,0.00,meteohub,2013-06-08 16:30:00,
2013-06-08 09:35:00,65.1,51.8,30.14,NNW,330,0.0,2.0,62,0.00,,,0.00,meteohub,2013-06-08 16:35:00,
2013-06-08 09:40:00,66.0,52.7,30.14,NNW,330,0.0,1.0,62,0.00,,,0.00,meteohub,2013-06-08 16:40:00,
2013-06-08 09:45:00,66.9,53.1,30.13,NNW,327,0.0,1.0,61,0.00,,,0.00,meteohub,2013-06-08 16:45:00,
2013-06-08 09:50:00,68.0,53.6,30.14,NNW,327,0.0,1.0,60,0.00,,,0.00,meteohub,2013-06-08 16:50:00,
2013-06-08 09:55:00,69.4,54.0,30.13,NNW,327,0.0,1.0,58,0.00,,,0.00,meteohub,2013-06-08 16:55:00,
2013-06-08 10:00:00,70.0,53.1,30.13,WSW,254,0.0,3.0,55,0.00,,,0.00,meteohub,2013-06-08 17:00:00,
2013-06-08 10:05:00,70.3,52.3,30.13,SW,232,0.0,3.0,53,0.00,,,0.00,meteohub,2013-06-08 17:05:00,
2013-06-08 10:10:00,71.4,54.9,30.13,SW,232,0.0,3.0,56,0.00,,,0.00,meteohub,2013-06-08 17:10:00,
2013-06-08 10:16:00,72.3,54.1,30.13,WSW,249,0.0,1.0,53,0.00,,,0.00,meteohub,2013-06-08 17:16:00,
2013-06-08 10:21:00,72.7,55.0,30.13,WSW,244,0.0,1.0,54,0.00,,,0.00,meteohub,2013-06-08 17:21:00,
2013-06-08 10:26:00,72.7,56.1,30.12,SW,233,0.0,1.0,56,0.00,,,0.00,meteohub,2013-06-08 17:26:00,
2013-06-08 10:31:00,72.1,54.5,30.12,SW,223,2.0,2.0,54,0.00,,,0.00,meteohub,2013-06-08 17:31:00,
2013-06-08 10:36:00,71.8,55.2,30.12,SW,234,0.0,2.0,56,0.00,,,0.00,meteohub,2013-06-08 17:36:00,
2013-06-08 10:41:00,72.1,56.1,30.12,SSW,211,0.0,2.0,57,0.00,,,0.00,meteohub,2013-06-08 17:41:00,
2013-06-08 10:46:00,72.7,56.1,30.12,SW,218,0.0,4.0,56,0.00,,,0.00,meteohub,2013-06-08 17:46:00,
2013-06-08 10:51:00,73.0,54.3,30.12,SSW,209,2.0,4.0,52,0.00,,,0.00,meteohub,2013-06-08 17:51:00,
2013-06-08 10:56:00,73.4,53.1,30.12,WSW,256,1.0,3.0,49,0.00,,,0.00,meteohub,2013-06-08 17:56:00,
2013-06-08 11:01:00,74.5,51.1,30.12,WNW,286,1.0,3.0,44,0.00,,,0.00,meteohub,2013-06-08 18:01:00,
2013-06-08 11:06:00,74.7,46.6,30.12,SE,136,0.0,3.0,37,0.00,,,0.00,meteohub,2013-06-08 18:06:00,
2013-06-08 11:11:00,74.3,47.7,30.12,NE,40,10.0,10.0,39,0.00,,,0.00,meteohub,2013-06-08 18:11:00,
2013-06-08 11:16:00,73.6,46.4,30.11,NNE,32,13.0,16.0,38,0.00,,,0.00,meteohub,2013-06-08 18:16:00,
2013-06-08 11:22:00,72.1,48.4,30.12,NW,311,3.0,16.0,43,0.00,,,0.00,meteohub,2013-06-08 18:22:00,
2013-06-08 11:27:00,71.4,47.8,30.12,WNW,287,1.0,16.0,43,0.00,,,0.00,meteohub,2013-06-08 18:27:00,
2013-06-08 11:32:00,71.4,45.1,30.12,NW,319,4.0,15.0,39,0.00,,,0.00,meteohub,2013-06-08 18:32:00,
2013-06-08 11:37:00,71.4,45.1,30.11,NW,323,2.0,11.0,39,0.00,,,0.00,meteohub,2013-06-08 18:37:00,
2013-06-08 11:42:00,70.2,52.2,30.12,NW,309,1.0,11.0,53,0.00,,,0.00,meteohub,2013-06-08 18:42:00,
2013-06-08 11:47:00,70.5,46.9,30.12,NW,315,11.0,11.0,43,0.00,,,0.00,meteohub,2013-06-08 18:47:00,
2013-06-08 11:52:00,70.5,51.4,30.11,WNW,302,0.0,13.0,51,0.00,,,0.00,meteohub,2013-06-08 18:52:00,
2013-06-08 11:57:00,70.3,53.4,30.11,WNW,286,1.0,13.0,55,0.00,,,0.00,meteohub,2013-06-08 18:57:00,
2013-06-08 12:02:00,70.5,52.5,30.11,NNE,32,1.0,13.0,53,0.00,,,0.00,meteohub,2013-06-08 19:02:00,
2013-06-08 12:07:00,70.9,54.3,30.11,WNW,299,1.0,8.0,56,0.00,,,0.00,meteohub,2013-06-08 19:07:00,
2013-06-08 12:12:00,71.1,55.0,30.11,WSW,248,1.0,8.0,57,0.00,,,0.00,meteohub,2013-06-08 19:12:00,
2013-06-08 12:17:00,71.1,54.5,30.11,WNW,286,1.0,5.0,56,0.00,,,0.00,meteohub,2013-06-08 19:17:00,
2013-06-08 12:22:00,71.2,54.7,30.11,WNW,291,0.0,3.0,56,0.00,,,0.00,meteohub,2013-06-08 19:22:00,
2013-06-08 12:27:00,71.4,54.0,30.11,WNW,302,0.0,2.0,54,0.00,,,0.00,meteohub,2013-06-08 19:27:00,
2013-06-08 12:32:00,72.0,56.3,30.11,NW,311,0.0,2.0,58,0.00,,,0.00,meteohub,2013-06-08 19:32:00,
2013-06-08 12:37:00,71.6,55.6,30.11,WNW,300,0.0,2.0,57,0.00,,,0.00,meteohub,2013-06-08 19:37:00,
2013-06-08 12:42:00,72.1,55.0,30.11,SW,223,1.0,2.0,55,0.00,,,0.00,meteohub,2013-06-08 19:42:00,
2013-06-08 12:47:00,73.2,56.7,30.11,SW,226,0.0,2.0,56,0.00,,,0.00,meteohub,2013-06-08 19:47:00,
2013-06-08 12:52:00,73.9,57.7,30.10,SW,215,0.0,2.0,57,0.00,,,0.00,meteohub,2013-06-08 19:52:00,
2013-06-08 12:57:00,74.5,56.3,30.10,West,272,0.0,1.0,53,0.00,,,0.00,meteohub,2013-06-08 19:57:00,
2013-06-08 13:02:00,74.7,55.9,30.10,West,261,0.0,1.0,52,0.00,,,0.00,meteohub,2013-06-08 20:02:00,
2013-06-08 13:07:00,74.7,54.9,30.10,SSW,206,0.0,1.0,50,0.00,,,0.00,meteohub,2013-06-08 20:07:00,
2013-06-08 13:12:00,74.5,55.8,30.10,WNW,291,0.0,1.0,52,0.00,,,0.00,meteohub,2013-06-08 20:12:00,
2013-06-08 13:17:00,74.7,56.5,30.10,WSW,248,1.0,1.0,53,0.00,,,0.00,meteohub,2013-06-08 20:17:00,
2013-06-08 13:22:00,73.9,55.2,30.10,WNW,292,0.0,1.0,52,0.00,,,0.00,meteohub,2013-06-08 20:22:00,
2013-06-08 13:27:00,73.0,53.8,30.09,WNW,303,0.0,2.0,51,0.00,,,0.00,meteohub,2013-06-08 20:27:00,
2013-06-08 13:32:00,72.3,53.2,30.09,NW,325,3.0,3.0,51,0.00,,,0.00,meteohub,2013-06-08 20:32:00,
2013-06-08 13:38:00,71.8,55.8,30.09,WNW,295,0.0,5.0,57,0.00,,,0.00,meteohub,2013-06-08 20:38:00,
2013-06-08 13:43:00,71.8,56.1,30.09,WNW,295,0.0,5.0,58,0.00,,,0.00,meteohub,2013-06-08 20:43:00,
2013-06-08 13:48:00,72.7,56.5,30.09,SW,214,1.0,5.0,57,0.00,,,0.00,meteohub,2013-06-08 20:48:00,
2013-06-08 13:53:00,73.9,56.3,30.09,WSW,248,0.0,2.0,54,0.00,,,0.00,meteohub,2013-06-08 20:53:00,
2013-06-08 13:58:00,74.7,56.8,30.08,SW,225,0.0,2.0,54,0.00,,,0.00,meteohub,2013-06-08 20:58:00,
2013-06-08 14:03:00,74.8,57.6,30.08,SW,221,0.0,1.0,55,0.00,,,0.00,meteohub,2013-06-08 21:03:00,
2013-06-08 14:08:00,74.8,56.5,30.08,West,272,0.0,1.0,53,0.00,,,0.00,meteohub,2013-06-08 21:08:00,
2013-06-08 14:13:00,74.5,55.2,30.08,WNW,288,1.0,1.0,51,0.00,,,0.00,meteohub,2013-06-08 21:13:00,
2013-06-08 14:18:00,74.1,56.8,30.07,NW,304,2.0,2.0,55,0.00,,,0.00,meteohub,2013-06-08 21:18:00,
2013-06-08 14:23:00,73.6,55.4,30.07,North,350,6.0,6.0,53,0.00,,,0.00,meteohub,2013-06-08 21:23:00,
2013-06-08 14:28:00,72.5,55.9,30.07,NW,326,6.0,6.0,56,0.00,,,0.00,meteohub,2013-06-08 21:28:00,
2013-06-08 14:33:00,71.2,54.3,30.07,NW,318,6.0,11.0,55,0.00,,,0.00,meteohub,2013-06-08 21:33:00,
2013-06-08 14:38:00,71.1,55.0,30.07,NNW,333,1.0,12.0,57,0.00,,,0.00,meteohub,2013-06-08 21:38:00,
2013-06-08 14:43:00,70.9,56.3,30.07,WNW,295,1.0,12.0,60,0.00,,,0.00,meteohub,2013-06-08 21:43:00,
2013-06-08 14:48:00,70.7,56.1,30.06,NNW,330,1.0,12.0,60,0.00,,,0.00,meteohub,2013-06-08 21:48:00,
2013-06-08 14:53:00,70.5,56.8,30.06,NW,325,2.0,7.0,62,0.00,,,0.00,meteohub,2013-06-08 21:53:00,
2013-06-08 14:58:00,69.6,57.4,30.06,NNW,327,6.0,7.0,65,0.00,,,0.00,meteohub,2013-06-08 21:58:00,
2013-06-08 15:03:00,69.4,58.8,30.06,NNW,330,0.0,8.0,69,0.00,,,0.00,meteohub,2013-06-08 22:03:00,
2013-06-08 15:08:00,69.6,57.7,30.06,NNW,327,1.0,8.0,66,0.00,,,0.00,meteohub,2013-06-08 22:08:00,
2013-06-08 15:13:00,69.3,57.4,30.06,NNW,331,1.0,8.0,66,0.00,,,0.00,meteohub,2013-06-08 22:13:00,
2013-06-08 15:18:00,69.4,58.5,30.06,NW,319,4.0,4.0,68,0.00,,,0.00,meteohub,2013-06-08 22:18:00,
2013-06-08 15:24:00,69.3,59.0,30.06,NNW,336,0.0,4.0,70,0.00,,,0.00,meteohub,2013-06-08 22:24:00,
2013-06-08 15:29:00,70.0,58.5,30.06,NNW,331,1.0,4.0,67,0.00,,,0.00,meteohub,2013-06-08 22:29:00,
2013-06-08 15:34:00,70.7,57.6,30.06,NE,35,2.0,4.0,63,0.00,,,0.00,meteohub,2013-06-08 22:34:00,
2013-06-08 15:39:00,71.2,55.2,30.06,ESE,112,2.0,3.0,57,0.00,,,0.00,meteohub,2013-06-08 22:39:00,
2013-06-08 15:44:00,72.7,54.5,30.06,WNW,302,0.0,6.0,53,0.00,,,0.00,meteohub,2013-06-08 22:44:00,
2013-06-08 15:49:00,73.2,55.0,30.06,SE,125,0.0,6.0,53,0.00,,,0.00,meteohub,2013-06-08 22:49:00,
2013-06-08 15:54:00,73.8,50.5,30.05,NW,309,2.0,6.0,44,0.00,,,0.00,meteohub,2013-06-08 22:54:00,
2013-06-08 15:59:00,73.8,50.5,30.05,ENE,69,0.0,4.0,44,0.00,,,0.00,meteohub,2013-06-08 22:59:00,
2013-06-08 16:04:00,73.9,51.3,30.05,NW,306,4.0,5.0,45,0.00,,,0.00,meteohub,2013-06-08 23:04:00,
2013-06-08 16:09:00,74.5,48.6,30.05,NNE,13,3.0,5.0,40,0.00,,,0.00,meteohub,2013-06-08 23:09:00,
2013-06-08 16:14:00,74.3,50.4,30.05,NNE,22,3.0,8.0,43,0.00,,,0.00,meteohub,2013-06-08 23:14:00,
2013-06-08 16:19:00,74.5,51.8,30.05,NNW,327,1.0,8.0,45,0.00,,,0.00,meteohub,2013-06-08 23:19:00,
2013-06-08 16:24:00,74.5,54.7,30.05,NNE,15,1.0,8.0,50,0.00,,,0.00,meteohub,2013-06-08 23:24:00,
2013-06-08 16:29:00,74.5,54.1,30.05,NE,50,3.0,5.0,49,0.00,,,0.00,meteohub,2013-06-08 23:29:00,
2013-06-08 16:34:00,74.3,49.6,30.05,NNW,330,1.0,5.0,42,0.00,,,0.00,meteohub,2013-06-08 23:34:00,
2013-06-08 16:39:00,74.3,52.2,30.05,NE,35,2.0,5.0,46,0.00,,,0.00,meteohub,2013-06-08 23:39:00,
2013-06-08 16:44:00,73.9,54.1,30.05,NE,35,1.0,4.0,50,0.00,,,0.00,meteohub,2013-06-08 23:44:00,
2013-06-08 16:49:00,73.6,53.8,30.05,NNW,327,2.0,4.0,50,0.00,,,0.00,meteohub,2013-06-08 23:49:00,
2013-06-08 16:54:00,72.9,55.2,30.04,NNW,327,1.0,4.0,54,0.00,,,0.00,meteohub,2013-06-08 23:54:00,
2013-06-08 16:59:00,72.9,58.1,30.04,NNW,327,0.0,2.0,60,0.00,,,0.00,meteohub,2013-06-08 23:59:00,
2013-06-08 17:04:00,73.2,56.1,30.04,NNW,327,0.0,2.0,55,0.00,,,0.00,meteohub,2013-06-09 00:04:00,
2013-06-08 17:09:00,74.5,53.4,30.04,North,11,0.0,2.0,48,0.00,,,0.00,meteohub,2013-06-09 00:09:00,
2013-06-08 17:15:00,75.4,50.7,30.04,North,11,1.0,1.0,42,0.00,,,0.00,meteohub,2013-06-09 00:15:00,
2013-06-08 17:20:00,75.4,51.3,30.04,NW,324,0.0,1.0,43,0.00,,,0.00,meteohub,2013-06-09 00:20:00,
2013-06-08 17:25:00,75.0,51.6,30.04,NW,325,0.0,2.0,44,0.00,,,0.00,meteohub,2013-06-09 00:25:00,
2013-06-08 17:30:00,74.7,51.3,30.04,NW,324,2.0,2.0,44,0.00,,,0.00,meteohub,2013-06-09 00:30:00,
2013-06-08 17:35:00,73.9,52.5,30.04,NNE,17,0.0,3.0,47,0.00,,,0.00,meteohub,2013-06-09 00:35:00,
2013-06-08 17:40:00,73.2,50.5,30.04,NE,44,1.0,3.0,45,0.00,,,0.00,meteohub,2013-06-09 00:40:00,
2013-06-08 17:45:00,73.2,51.3,30.04,NE,44,0.0,3.0,46,0.00,,,0.00,meteohub,2013-06-09 00:45:00,
2013-06-08 17:50:00,73.2,49.5,30.04,NE,44,0.0,1.0,43,0.00,,,0.00,meteohub,2013-06-09 00:50:00,
2013-06-08 17:55:00,73.4,49.5,30.04,NE,44,0.0,1.0,43,0.00,,,0.00,meteohub,2013-06-09 00:55:00,
2013-06-08 18:00:00,73.0,50.4,30.04,NE,44,0.0,1.0,45,0.00,,,0.00,meteohub,2013-06-09 01:00:00,
2013-06-08 18:05:00,72.9,50.4,30.04,NE,44,0.0,1.0,45,0.00,,,0.00,meteohub,2013-06-09 01:05:00,
2013-06-08 18:10:00,72.9,49.1,30.04,SSW,205,1.0,1.0,43,0.00,,,0.00,meteohub,2013-06-09 01:10:00,
2013-06-08 18:15:00,73.0,49.3,30.04,SSW,205,0.0,1.0,43,0.00,,,0.00,meteohub,2013-06-09 01:15:00,
2013-06-08 18:21:00,73.2,48.7,30.04,SSW,205,0.0,1.0,42,0.00,,,0.00,meteohub,2013-06-09 01:21:00,
2013-06-08 18:26:00,73.6,49.6,30.04,SSW,204,0.0,1.0,43,0.00,,,0.00,meteohub,2013-06-09 01:26:00,
2013-06-08 18:31:00,73.8,49.8,30.04,SSW,205,0.0,0.0,43,0.00,,,0.00,meteohub,2013-06-09 01:31:00,
2013-06-08 18:36:00,73.9,50.7,30.04,SSW,205,0.0,0.0,44,0.00,,,0.00,meteohub,2013-06-09 01:36:00,
2013-06-08 18:41:00,74.5,49.3,30.04,SSW,205,0.0,0.0,41,0.00,,,0.00,meteohub,2013-06-09 01:41:00,
2013-06-08 18:46:00,74.8,48.2,30.04,SSW,205,0.0,1.0,39,0.00,,,0.00,meteohub,2013-06-09 01:46:00,
2013-06-08 18:51:00,75.0,49.6,30.04,SSW,205,0.0,1.0,41,0.00,,,0.00,meteohub,2013-06-09 01:51:00,
2013-06-08 18:56:00,75.0,52.2,30.04,SSW,205,0.0,1.0,45,0.00,,,0.00,meteohub,2013-06-09 01:56:00,
2013-06-08 19:01:00,75.0,52.2,30.04,SSW,205,0.0,0.0,45,0.00,,,0.00,meteohub,2013-06-09 02:01:00,
2013-06-08 19:06:00,75.0,49.6,30.04,SSW,205,0.0,0.0,41,0.00,,,0.00,meteohub,2013-06-09 02:06:00,
2013-06-08 19:12:00,74.8,48.9,30.04,SSW,205,0.0,1.0,40,0.00,,,0.00,meteohub,2013-06-09 02:12:00,
2013-06-08 19:17:00,74.8,48.2,30.04,SSW,205,0.0,1.0,39,0.00,,,0.00,meteohub,2013-06-09 02:17:00,
2013-06-08 19:22:00,74.7,46.6,30.04,SSW,205,0.0,1.0,37,0.00,,,0.00,meteohub,2013-06-09 02:22:00,
2013-06-08 19:27:00,74.7,45.1,30.04,SSW,205,0.0,0.0,35,0.00,,,0.00,meteohub,2013-06-09 02:27:00,
2013-06-08 19:32:00,74.5,45.9,30.05,SSW,205,0.0,1.0,36,0.00,,,0.00,meteohub,2013-06-09 02:32:00,
2013-06-08 19:37:00,74.3,47.7,30.05,SSW,205,0.0,1.0,39,0.00,,,0.00,meteohub,2013-06-09 02:37:00,
2013-06-08 19:42:00,74.1,50.2,30.05,SSW,205,0.0,1.0,43,0.00,,,0.00,meteohub,2013-06-09 02:42:00,
2013-06-08 19:47:00,73.9,51.3,30.05,SSE,153,0.0,1.0,45,0.00,,,0.00,meteohub,2013-06-09 02:47:00,
2013-06-08 19:52:00,73.6,50.9,30.05,SSE,154,0.0,1.0,45,0.00,,,0.00,meteohub,2013-06-09 02:52:00,
2013-06-08 19:57:00,73.4,52.5,30.05,SSE,155,0.0,1.0,48,0.00,,,0.00,meteohub,2013-06-09 02:57:00,
2013-06-08 20:02:00,73.2,52.9,30.05,SSE,152,0.0,1.0,49,0.00,,,0.00,meteohub,2013-06-09 03:02:00,
2013-06-08 20:07:00,73.0,53.2,30.05,SSE,152,0.0,1.0,50,0.00,,,0.00,meteohub,2013-06-09 03:07:00,
2013-06-08 20:12:00,72.7,52.9,30.05,SSE,152,0.0,1.0,50,0.00,,,0.00,meteohub,2013-06-09 03:12:00,
2013-06-08 20:17:00,72.3,52.2,30.05,SSE,152,0.0,1.0,49,0.00,,,0.00,meteohub,2013-06-09 03:17:00,
2013-06-08 20:22:00,72.0,51.8,30.05,SSE,152,0.0,0.0,49,0.00,,,0.00,meteohub,2013-06-09 03:22:00,
2013-06-08 20:27:00,71.8,51.6,30.05,SSE,152,0.0,0.0,49,0.00,,,0.00,meteohub,2013-06-09 03:27:00,
2013-06-08 20:32:00,71.4,52.9,30.05,SE,146,0.0,0.0,52,0.00,,,0.00,meteohub,2013-06-09 03:32:00,
2013-06-08 20:37:00,71.1,53.1,30.05,SSE,147,0.0,1.0,53,0.00,,,0.00,meteohub,2013-06-09 03:37:00,
2013-06-08 20:42:00,70.5,53.1,30.05,SSE,147,0.0,1.0,54,0.00,,,0.00,meteohub,2013-06-09 03:42:00,
2013-06-08 20:47:00,70.2,53.8,30.05,East,96,0.0,1.0,56,0.00,,,0.00,meteohub,2013-06-09 03:47:00,
2013-06-08 20:52:00,69.8,53.4,30.05,East,95,0.0,1.0,56,0.00,,,0.00,meteohub,2013-06-09 03:52:00,
2013-06-08 20:57:00,69.4,53.6,30.05,SSE,160,0.0,1.0,57,0.00,,,0.00,meteohub,2013-06-09 03:57:00,
2013-06-08 21:01:00,69.3,53.8,30.06,SSE,160,0.0,0.0,58,0.00,,,0.00,meteohub,2013-06-09 04:01:00,
2013-06-08 21:02:00,69.1,53.6,30.06,SSE,160,0.0,0.0,58,0.00,,,0.00,meteohub,2013-06-09 04:02:00,
2013-06-08 21:07:00,68.7,53.8,30.06,SSE,160,0.0,0.0,59,0.00,,,0.00,meteohub,2013-06-09 04:07:00,
2013-06-08 21:12:00,68.5,53.6,30.06,ESE,119,0.0,0.0,59,0.00,,,0.00,meteohub,2013-06-09 04:12:00,
2013-06-08 21:17:00,68.2,53.2,30.06,ESE,120,0.0,0.0,59,0.00,,,0.00,meteohub,2013-06-09 04:17:00,
2013-06-08 21:23:00,67.6,52.9,30.06,ESE,120,0.0,0.0,59,0.00,,,0.00,meteohub,2013-06-09 04:23:00,
2013-06-08 21:27:00,67.5,53.1,30.06,SSW,200,0.0,0.0,60,0.00,,,0.00,meteohub,2013-06-09 04:27:00,
2013-06-08 21:33:00,67.3,52.9,30.06,SSW,200,0.0,0.0,60,0.00,,,0.00,meteohub,2013-06-09 04:33:00,
2013-06-08 21:38:00,67.1,53.2,30.06,SW,231,0.0,0.0,61,0.00,,,0.00,meteohub,2013-06-09 04:38:00,
2013-06-08 21:43:00,66.9,52.2,30.07,SW,231,0.0,0.0,59,0.00,,,0.00,meteohub,2013-06-09 04:43:00,
2013-06-08 21:48:00,66.7,52.0,30.07,SW,217,0.0,0.0,59,0.00,,,0.00,meteohub,2013-06-09 04:48:00,
2013-06-08 21:53:00,66.7,51.4,30.07,South,176,0.0,0.0,58,0.00,,,0.00,meteohub,2013-06-09 04:53:00,
2013-06-08 21:58:00,66.6,51.8,30.07,South,175,0.0,0.0,59,0.00,,,0.00,meteohub,2013-06-09 04:58:00,
2013-06-08 22:03:00,66.4,51.6,30.07,ESE,109,0.0,1.0,59,0.00,,,0.00,meteohub,2013-06-09 05:03:00,
2013-06-08 22:08:00,66.2,51.4,30.07,ESE,109,0.0,1.0,59,0.00,,,0.00,meteohub,2013-06-09 05:08:00,
2013-06-08 22:13:00,65.8,50.7,30.07,ESE,109,0.0,1.0,58,0.00,,,0.00,meteohub,2013-06-09 05:13:00,
2013-06-08 22:18:00,65.7,50.9,30.08,ESE,111,0.0,1.0,59,0.00,,,0.00,meteohub,2013-06-09 05:18:00,
2013-06-08 22:23:00,65.5,50.7,30.07,SSE,166,0.0,1.0,59,0.00,,,0.00,meteohub,2013-06-09 05:23:00,
2013-06-08 22:28:00,65.1,50.4,30.08,SSE,161,0.0,1.0,59,0.00,,,0.00,meteohub,2013-06-09 05:28:00,
2013-06-08 22:33:00,64.9,49.8,30.08,SSE,161,0.0,1.0,58,0.00,,,0.00,meteohub,2013-06-09 05:33:00,
2013-06-08 22:38:00,64.8,50.2,30.08,South,175,1.0,1.0,59,0.00,,,0.00,meteohub,2013-06-09 05:38:00,
2013-06-08 22:43:00,64.6,50.0,30.08,SSW,211,0.0,1.0,59,0.00,,,0.00,meteohub,2013-06-09 05:43:00,
2013-06-08 22:48:00,64.6,48.9,30.08,SE,138,1.0,1.0,57,0.00,,,0.00,meteohub,2013-06-09 05:48:00,
2013-06-08 22:53:00,64.6,49.5,30.08,East,82,0.0,1.0,58,0.00,,,0.00,meteohub,2013-06-09 05:53:00,
2013-06-08 22:58:00,64.6,48.6,30.08,SSW,203,0.0,1.0,56,0.00,,,0.00,meteohub,2013-06-09 05:58:00,
2013-06-08 23:03:00,64.2,48.2,30.08,East,87,2.0,2.0,56,0.00,,,0.00,meteohub,2013-06-09 06:03:00,
2013-06-08 23:08:00,64.2,47.3,30.08,SSW,200,0.0,3.0,54,0.00,,,0.00,meteohub,2013-06-09 06:08:00,
2013-06-08 23:13:00,64.0,47.5,30.08,SW,214,0.0,3.0,55,0.00,,,0.00,meteohub,2013-06-09 06:13:00,
2013-06-08 23:18:00,63.9,47.8,30.08,SW,236,1.0,3.0,56,0.00,,,0.00,meteohub,2013-06-09 06:18:00,
2013-06-08 23:23:00,63.9,47.8,30.08,SW,231,0.0,3.0,56,0.00,,,0.00,meteohub,2013-06-09 06:23:00,
2013-06-08 23:28:00,63.7,47.7,30.09,SE,132,0.0,3.0,56,0.00,,,0.00,meteohub,2013-06-09 06:28:00,
2013-06-08 23:34:00,63.7,46.8,30.08,SSW,194,0.0,3.0,54,0.00,,,0.00,meteohub,2013-06-09 06:34:00,
2013-06-08 23:39:00,63.7,47.7,30.09,SSE,168,0.0,2.0,56,0.00,,,0.00,meteohub,2013-06-09 06:39:00,
2013-06-08 23:44:00,63.3,46.9,30.08,South,169,0.0,2.0,55,0.00,,,0.00,meteohub,2013-06-09 06:44:00,
2013-06-08 23:49:00,63.1,47.1,30.08,SSW,202,0.0,2.0,56,0.00,,,0.00,meteohub,2013-06-09 06:49:00,
2013-06-08 23:54:00,62.8,46.9,30.08,SSW,196,0.0,2.0,56,0.00,,,0.00,meteohub,2013-06-09 06:54:00,
2013-06-08 23:59:00,62.4,47.5,30.09,South,169,1.0,2.0,58,0.00,,,0.00,meteohub,2013-06-09 06:59:00,